Time;durP1;ratioP1;P1;durP2;ratioP2;P2;SDS_P1;SDS_P2;PMS_P1;PMS_P2;Temp;Humidity;BMP_temperature;BMP_pressure;BME280_temperature;BME280_humidity;BME280_pressure;Samples;Min_cycle;Max_cycle;Signal;HPM_P1;HPM_P2
2022/09/30 00:00:30;;;;;;;1999.90;999.90;;;12.10;7.70;;;;;;5094145;28;20048;-78
2022/09/30 00:02:55;;;;;;;1999.90;999.90;;;12.10;64.10;;;;;;5093617;28;20059;-78
2022/09/30 00:05:21;;;;;;;1999.90;999.90;;;11.80;99.90;;;;;;5101896;28;20173;-78
2022/09/30 00:07:46;;;;;;;1999.90;999.90;;;11.80;99.90;;;;;;5107477;28;20393;-78
2022/09/30 00:10:13;;;;;;;1999.90;999.90;;;12.10;99.90;;;;;;5105452;28;20051;-81
2022/09/30 00:12:39;;;;;;;1999.90;999.90;;;12.00;99.90;;;;;;5106943;28;20070;-78
2022/09/30 00:15:06;;;;;;;1999.90;999.90;;;11.80;99.90;;;;;;5090746;28;20048;-83
2022/09/30 00:17:31;;;;;;;1999.90;999.90;;;11.80;99.90;;;;;;5107994;28;20036;-79
2022/09/30 00:19:57;;;;;;;1999.90;999.90;;;11.90;99.90;;;;;;5104132;28;20056;-78
2022/09/30 00:22:23;;;;;;;1999.90;999.90;;;12.00;99.90;;;;;;5109776;28;20055;-79
2022/09/30 00:24:49;;;;;;;1999.90;999.90;;;11.70;99.90;;;;;;5075287;28;20107;-80
2022/09/30 00:27:17;;;;;;;1999.90;999.90;;;12.80;99.90;;;;;;5092275;28;20082;-80
2022/09/30 00:29:43;;;;;;;1999.90;999.90;;;11.70;99.90;;;;;;5110301;28;20606;-79
2022/09/30 00:32:09;;;;;;;1999.90;999.90;;;11.90;99.90;;;;;;5108949;28;20058;-79
2022/09/30 00:34:35;;;;;;;1999.90;999.90;;;11.90;99.90;;;;;;5103266;28;20504;-79
2022/09/30 00:37:01;;;;;;;1999.90;999.90;;;11.90;99.90;;;;;;5077924;28;20055;-79
2022/09/30 00:39:28;;;;;;;1999.90;999.90;;;11.90;99.90;;;;;;5076586;28;20503;-80
2022/09/30 00:41:59;;;;;;;1999.90;999.90;;;11.80;99.90;;;;;;5094190;28;20036;-79
2022/09/30 00:44:44;;;;;;;1999.90;999.90;;;11.80;99.90;;;;;;5093937;28;20090;-80
2022/09/30 00:47:24;;;;;;;1999.90;999.90;;;11.90;99.90;;;;;;5093690;28;20051;-80
2022/09/30 00:49:51;;;;;;;1999.90;999.90;;;12.00;99.90;;;;;;5093494;28;20052;-79
2022/09/30 00:52:18;;;;;;;1999.90;999.90;;;11.70;99.90;;;;;;5092236;28;20044;-79
2022/09/30 00:54:44;;;;;;;1999.90;999.90;;;11.70;99.90;;;;;;5092654;28;20070;-80
2022/09/30 00:57:10;;;;;;;1999.90;999.90;;;11.90;99.90;;;;;;5090134;28;20228;-83
2022/09/30 00:59:48;;;;;;;1999.90;999.90;;;11.70;99.90;;;;;;5092226;28;20084;-79
2022/09/30 01:02:14;;;;;;;1999.90;999.90;;;11.90;99.90;;;;;;5092057;28;20039;-78
2022/09/30 01:04:41;;;;;;;1999.90;999.90;;;12.30;99.90;;;;;;5092619;28;20051;-80
2022/09/30 01:07:08;;;;;;;1999.90;999.90;;;11.90;99.90;;;;;;5074533;28;20087;-79
2022/09/30 01:09:35;;;;;;;1999.90;999.90;;;12.00;99.90;;;;;;5092289;28;20052;-79
2022/09/30 01:12:08;;;;;;;1999.90;999.90;;;11.80;1.00;;;;;;5091689;28;20499;-79
2022/09/30 01:14:35;;;;;;;1999.90;999.90;;;11.70;99.90;;;;;;5092043;28;20044;-79
2022/09/30 01:17:10;;;;;;;1999.90;999.90;;;11.80;99.90;;;;;;5091490;28;20101;-79
2022/09/30 01:20:03;;;;;;;1999.90;999.90;;;11.80;99.90;;;;;;5074072;28;20135;-80
2022/09/30 01:22:39;;;;;;;1999.90;999.90;;;11.90;99.90;;;;;;5091811;28;20066;-79
2022/09/30 01:25:14;;;;;;;1999.90;999.90;;;11.90;1.00;;;;;;5091439;28;20568;-79
2022/09/30 01:27:42;;;;;;;1999.90;999.90;;;11.70;1.00;;;;;;5091527;28;20055;-79
2022/09/30 01:30:16;;;;;;;1999.90;999.90;;;11.80;1.00;;;;;;5092806;28;20056;-79
2022/09/30 01:33:18;;;;;;;1999.90;999.90;;;11.80;99.90;;;;;;5091811;28;20039;-79
2022/09/30 01:36:12;;;;;;;1999.90;999.90;;;11.60;99.90;;;;;;5073962;28;20048;-79
2022/09/30 01:39:15;;;;;;;1999.90;999.90;;;11.70;1.00;;;;;;5091222;28;20052;-78
2022/09/30 01:42:11;;;;;;;1999.90;999.90;;;11.60;1.00;;;;;;5091337;28;20051;-79
2022/09/30 01:45:02;;;;;;;1999.90;999.90;;;11.80;1.00;;;;;;5092228;28;20109;-79
2022/09/30 01:47:54;;;;;;;1999.90;999.90;;;12.00;1.00;;;;;;5091509;28;20049;-78
2022/09/30 01:50:22;;;;;;;1999.90;999.90;;;11.60;1.00;;;;;;5073796;28;20161;-79
2022/09/30 01:53:02;;;;;;;1999.90;999.90;;;11.70;1.00;;;;;;5091910;28;20040;-78
2022/09/30 01:55:38;;;;;;;1999.90;999.90;;;11.60;1.00;;;;;;5091122;28;20505;-78
2022/09/30 01:58:11;;;;;;;1999.90;999.90;;;11.50;1.00;;;;;;5091180;28;20048;-78
2022/09/30 02:00:41;;;;;;;1999.90;999.90;;;11.60;1.00;;;;;;5091735;28;20048;-79
2022/09/30 02:03:35;;;;;;;1999.90;999.90;;;11.60;1.00;;;;;;5091319;28;20048;-78
2022/09/30 02:06:11;;;;;;;1999.90;999.90;;;11.40;1.00;;;;;;5091239;28;20044;-79
2022/09/30 02:08:45;;;;;;;1999.90;999.90;;;11.40;1.00;;;;;;5091792;28;20106;-78
2022/09/30 02:11:19;;;;;;;1999.90;999.90;;;11.20;1.00;;;;;;5091746;28;20080;-79
2022/09/30 02:14:07;;;;;;;1999.90;999.90;;;11.20;1.00;;;;;;5095727;28;20488;-78
2022/09/30 02:17:02;;;;;;;1999.90;999.90;;;11.20;1.00;;;;;;5094847;28;20492;-78
2022/09/30 02:19:40;;;;;;;1999.90;999.90;;;11.40;1.00;;;;;;5092675;28;20055;-78
2022/09/30 02:22:27;;;;;;;1999.90;999.90;;;11.10;1.00;;;;;;5095575;28;20492;-79
2022/09/30 02:25:00;;;;;;;1999.90;999.90;;;11.40;1.00;;;;;;5078332;28;20409;-78
2022/09/30 02:27:40;;;;;;;1999.90;999.90;;;11.20;1.00;;;;;;5075655;28;20052;-78
2022/09/30 02:30:08;;;;;;;1999.90;999.90;;;11.10;1.00;;;;;;5095810;28;20098;-78
2022/09/30 02:32:50;;;;;;;1999.90;999.90;;;11.20;1.00;;;;;;5095406;28;20094;-79
2022/09/30 02:35:29;;;;;;;1999.90;999.90;;;11.20;1.00;;;;;;5095549;28;20117;-78
2022/09/30 02:38:02;;;;;;;1999.90;999.90;;;11.30;1.00;;;;;;5095110;28;20538;-79
2022/09/30 02:40:35;;;;;;;1999.90;999.90;;;11.10;1.00;;;;;;5077457;28;20391;-78
2022/09/30 02:43:03;;;;;;;1999.90;999.90;;;11.20;1.00;;;;;;5095289;28;20056;-78
2022/09/30 02:45:34;;;;;;;1999.90;999.90;;;11.00;1.00;;;;;;5076268;28;20496;-78
2022/09/30 02:48:30;;;;;;;1999.90;999.90;;;12.00;1.00;;;;;;5095539;28;20086;-78
2022/09/30 02:51:04;;;;;;;1999.90;999.90;;;11.20;1.00;;;;;;5095443;28;20463;-77
2022/09/30 02:53:38;;;;;;;1999.90;999.90;;;11.00;1.00;;;;;;5094164;28;20044;-79
2022/09/30 02:56:38;;;;;;;1999.90;999.90;;;10.90;1.00;;;;;;5094400;28;20444;-78
2022/09/30 02:59:04;;;;;;;1999.90;999.90;;;10.90;1.00;;;;;;5076808;28;20048;-78
2022/09/30 03:01:30;;;;;;;1999.90;999.90;;;11.10;1.00;;;;;;5094244;28;20472;-78
2022/09/30 03:04:02;;;;;;;1999.90;999.90;;;11.00;1.00;;;;;;5095115;28;20063;-78
2022/09/30 03:06:28;;;;;;;1999.90;999.90;;;11.00;1.00;;;;;;5093708;28;20052;-78
2022/09/30 03:08:53;;;;;;;1999.90;999.90;;;10.90;1.00;;;;;;5095134;28;20066;-78
2022/09/30 03:11:23;;;;;;;1999.90;999.90;;;10.80;1.00;;;;;;5060221;28;20044;-79
2022/09/30 03:13:56;;;;;;;1999.90;999.90;;;11.10;1.00;;;;;;5094257;28;20527;-79
2022/09/30 03:16:42;;;;;;;1999.90;999.90;;;10.80;1.00;;;;;;5094338;28;20040;-78
2022/09/30 03:19:27;;;;;;;1999.90;999.90;;;11.20;1.00;;;;;;5095216;28;20047;-79
2022/09/30 03:22:18;;;;;;;1999.90;999.90;;;11.00;1.00;;;;;;5073519;28;20131;-78
2022/09/30 03:25:14;;;;;;;1999.90;999.90;;;11.00;1.00;;;;;;5055950;28;20045;-78
2022/09/30 03:28:18;;;;;;;1999.90;999.90;;;11.00;1.00;;;;;;5073795;28;20051;-79
2022/09/30 03:31:13;;;;;;;1999.90;999.90;;;11.10;1.00;;;;;;5055914;28;20139;-80
2022/09/30 03:33:57;;;;;;;1999.90;999.90;;;11.00;1.00;;;;;;5074065;28;20048;-80
2022/09/30 03:36:38;;;;;;;1999.90;999.90;;;12.00;1.00;;;;;;5072584;28;20099;-78
2022/09/30 03:39:16;;;;;;;1999.90;999.90;;;10.90;99.90;;;;;;5073937;28;20036;-78
2022/09/30 03:42:04;;;;;;;1999.90;999.90;;;10.80;99.90;;;;;;5055496;28;20048;-79
2022/09/30 03:44:35;;;;;;;1999.90;999.90;;;10.80;99.90;;;;;;5039333;28;20470;-78
2022/09/30 03:47:09;;;;;;;1999.90;999.90;;;10.60;99.90;;;;;;5073225;28;20051;-78
2022/09/30 03:49:59;;;;;;;1999.90;999.90;;;11.40;99.90;;;;;;5073827;28;20045;-78
2022/09/30 03:52:26;;;;;;;1999.90;999.90;;;10.60;99.90;;;;;;5073980;28;20087;-78
2022/09/30 03:54:55;;;;;;;1999.90;999.90;;;10.90;99.90;;;;;;5073394;28;20131;-78
2022/09/30 03:57:21;;;;;;;1999.90;999.90;;;10.70;99.90;;;;;;5072778;28;20393;-78
2022/09/30 03:59:46;;;;;;;1999.90;999.90;;;11.70;99.90;;;;;;5073647;28;20058;-79
2022/09/30 04:02:12;;;;;;;1999.90;999.90;;;10.60;99.90;;;;;;5073237;28;20045;-79
2022/09/30 04:04:39;;;;;;;1999.90;999.90;;;10.90;99.90;;;;;;5038576;28;20048;-82
2022/09/30 04:07:05;;;;;;;1999.90;999.90;;;10.60;99.90;;;;;;5072210;28;20126;-78
2022/09/30 04:09:31;;;;;;;1999.90;999.90;;;10.60;99.90;;;;;;5055600;28;20036;-82
2022/09/30 04:11:57;;;;;;;1999.90;999.90;;;11.90;99.90;;;;;;5054854;28;20098;-79
2022/09/30 04:14:22;;;;;;;1999.90;999.90;;;12.10;99.90;;;;;;5073183;28;20132;-78
2022/09/30 04:16:48;;;;;;;1999.90;999.90;;;10.90;99.90;;;;;;5054196;28;20040;-79
2022/09/30 04:19:14;;;;;;;1999.90;999.90;;;11.40;99.90;;;;;;5072392;28;20041;-80
2022/09/30 04:21:39;;;;;;;1999.90;999.90;;;10.90;99.90;;;;;;5092531;28;20036;-81
2022/09/30 04:24:05;;;;;;;1999.90;999.90;;;10.60;99.90;;;;;;5093038;28;20087;-80
2022/09/30 04:26:31;;;;;;;1999.90;999.90;;;10.60;99.90;;;;;;5093093;28;20388;-80
2022/09/30 04:28:57;;;;;;;1999.90;999.90;;;10.90;99.90;;;;;;5091879;28;20488;-78
2022/09/30 04:31:24;;;;;;;1999.90;999.90;;;11.00;99.90;;;;;;5075385;28;20044;-79
2022/09/30 04:33:49;;;;;;;1999.90;999.90;;;10.70;99.90;;;;;;5075375;28;20342;-79
2022/09/30 04:36:15;;;;;;;1999.90;999.90;;;11.00;99.90;;;;;;5092348;28;20087;-80
2022/09/30 04:38:41;;;;;;;1999.90;999.90;;;11.00;99.90;;;;;;5092081;28;20048;-79
2022/09/30 04:41:10;;;;;;;1999.90;999.90;;;10.70;99.90;;;;;;5093758;28;20036;-79
2022/09/30 04:43:35;;;;;;;1999.90;999.90;;;10.90;99.90;;;;;;5092832;28;20058;-80
2022/09/30 04:46:01;;;;;;;1999.90;999.90;;;10.70;99.90;;;;;;5093661;28;20392;-79
2022/09/30 04:48:29;;;;;;;1999.90;999.90;;;10.70;99.90;;;;;;5092265;28;20044;-79
2022/09/30 04:50:54;;;;;;;1999.90;999.90;;;10.60;99.90;;;;;;5091675;28;20051;-79
2022/09/30 04:53:20;;;;;;;1999.90;999.90;;;12.00;99.90;;;;;;5093239;28;20123;-80
2022/09/30 04:55:46;;;;;;;1999.90;999.90;;;10.90;99.90;;;;;;5091108;28;20400;-80
2022/09/30 04:58:12;;;;;;;1999.90;999.90;;;10.90;99.90;;;;;;5092778;28;20040;-80
2022/09/30 05:00:38;;;;;;;1999.90;999.90;;;11.00;99.90;;;;;;5092264;28;20492;-81
2022/09/30 05:03:04;;;;;;;1999.90;999.90;;;10.80;99.90;;;;;;5092800;28;20048;-81
2022/09/30 05:05:31;;;;;;;1999.90;999.90;;;10.40;99.90;;;;;;5092538;28;20485;-80
2022/09/30 05:08:03;;;;;;;1999.90;999.90;;;10.50;99.90;;;;;;5093091;28;20066;-79
2022/09/30 05:10:32;;;;;;;1999.90;999.90;;;10.30;99.90;;;;;;5093017;28;20388;-80
2022/09/30 05:12:58;;;;;;;1999.90;999.90;;;10.60;99.90;;;;;;5092780;28;20127;-79
2022/09/30 05:15:24;;;;;;;1999.90;999.90;;;11.00;99.90;;;;;;5092092;28;20052;-79
2022/09/30 05:17:51;;;;;;;1999.90;999.90;;;10.30;99.90;;;;;;5092847;28;20123;-78
2022/09/30 05:20:17;;;;;;;1999.90;999.90;;;11.00;99.90;;;;;;5092997;28;20051;-80
2022/09/30 05:22:43;;;;;;;1999.90;999.90;;;10.30;99.90;;;;;;5074148;28;20062;-80
2022/09/30 05:25:09;;;;;;;1999.90;999.90;;;10.90;99.90;;;;;;5091359;28;20044;-83
2022/09/30 05:27:34;;;;;;;1999.90;999.90;;;10.30;99.90;;;;;;5090820;28;20457;-83
2022/09/30 05:30:01;;;;;;;1999.90;999.90;;;11.70;99.90;;;;;;5090962;28;20044;-80
2022/09/30 05:32:27;;;;;;;1999.90;999.90;;;10.20;99.90;;;;;;5092643;28;20477;-81
2022/09/30 05:34:56;;;;;;;1999.90;999.90;;;10.20;99.90;;;;;;5091842;28;20048;-81
2022/09/30 05:37:21;;;;;;;1999.90;999.90;;;10.30;99.90;;;;;;5073894;28;20044;-81
2022/09/30 05:39:47;;;;;;;1999.90;999.90;;;10.60;99.90;;;;;;5091405;28;20048;-82
2022/09/30 05:42:12;;;;;;;1999.90;999.90;;;11.30;99.90;;;;;;5092348;28;20052;-81
2022/09/30 05:44:38;;;;;;;1999.90;999.90;;;10.90;99.90;;;;;;5091565;28;20044;-81
2022/09/30 05:47:04;;;;;;;1999.90;999.90;;;11.90;1.00;;;;;;5073348;28;20044;-82
2022/09/30 05:49:33;;;;;;;1999.90;999.90;;;12.30;1.00;;;;;;5092136;28;20048;-81
2022/09/30 05:51:59;;;;;;;1999.90;999.90;;;10.70;1.00;;;;;;5074356;28;20055;-81
2022/09/30 05:54:25;;;;;;;1999.90;999.90;;;11.20;1.00;;;;;;5092694;28;20044;-82
2022/09/30 05:56:51;;;;;;;1999.90;999.90;;;11.30;1.00;;;;;;5092279;28;20044;-81
2022/09/30 05:59:18;;;;;;;1999.90;999.90;;;11.50;1.00;;;;;;5092014;28;20044;-81
2022/09/30 06:01:44;;;;;;;1999.90;999.90;;;11.20;1.00;;;;;;5074741;28;20047;-82
2022/09/30 06:04:10;;;;;;;1999.90;999.90;;;11.20;1.00;;;;;;5093588;28;20048;-81
2022/09/30 06:06:35;;;;;;;1999.90;999.90;;;11.50;1.00;;;;;;5092626;28;20052;-81
2022/09/30 06:09:01;;;;;;;1999.90;999.90;;;11.30;1.00;;;;;;5074620;28;20048;-81
2022/09/30 06:11:27;;;;;;;1999.90;999.90;;;12.80;1.00;;;;;;5074130;28;20056;-81
2022/09/30 06:13:52;;;;;;;1999.90;999.90;;;11.40;35.00;;;;;;5092174;28;20177;-81
2022/09/30 06:16:18;;;;;;;1999.90;999.90;;;11.90;70.60;;;;;;5092389;28;20079;-81
2022/09/30 06:18:44;;;;;;;1999.90;999.90;;;11.70;83.70;;;;;;5092057;28;20040;-81
2022/09/30 06:21:12;;;;;;;1999.90;999.90;;;11.70;73.20;;;;;;5092005;28;20538;-83
2022/09/30 06:23:39;;;;;;;1999.90;999.90;;;12.30;81.60;;;;;;5092444;28;20056;-81
2022/09/30 06:26:07;;;;;;;1999.90;999.90;;;12.10;69.40;;;;;;5074396;28;20052;-81
2022/09/30 06:28:34;;;;;;;;;;;11.80;71.00;;;;;;5091647;28;20040;-82
2022/09/30 06:31:00;;;;;;;1999.90;999.90;;;11.90;61.80;;;;;;5091818;28;19931;-82
2022/09/30 06:33:26;;;;;;;1999.90;999.90;;;11.90;49.50;;;;;;5092373;28;20048;-82
2022/09/30 06:35:52;;;;;;;1999.90;999.90;;;12.90;46.30;;;;;;5092103;28;20079;-82
2022/09/30 06:38:18;;;;;;;1999.90;999.90;;;11.80;41.30;;;;;;5057143;28;20055;-82
2022/09/30 06:40:48;;;;;;;1999.90;999.90;;;12.00;28.10;;;;;;5092127;28;20063;-81
2022/09/30 06:43:17;;;;;;;1999.90;999.90;;;11.80;48.30;;;;;;5092115;28;20083;-81
2022/09/30 06:45:50;;;;;;;1999.90;999.90;;;12.10;33.30;;;;;;5074487;28;20385;-81
2022/09/30 06:48:16;;;;;;;1999.90;999.90;;;11.90;53.30;;;;;;5057170;28;20052;-81
2022/09/30 06:50:42;;;;;;;1999.90;999.90;;;12.30;35.10;;;;;;5073954;28;20124;-82
2022/09/30 06:53:10;;;;;;;1999.90;999.90;;;12.70;40.70;;;;;;5091451;28;20044;-82
2022/09/30 06:55:38;;;;;;;;;;;12.50;44.10;;;;;;5092528;28;20079;-81
2022/09/30 06:58:07;;;;;;;1999.90;999.90;;;12.40;67.70;;;;;;5092511;28;19920;-81
2022/09/30 07:00:33;;;;;;;1999.90;999.90;;;12.40;64.10;;;;;;5095644;28;20044;-81
2022/09/30 07:02:59;;;;;;;1999.90;999.90;;;12.60;51.20;;;;;;5060688;28;20047;-81
2022/09/30 07:05:25;;;;;;;1999.90;999.90;;;12.30;64.50;;;;;;5077878;28;20048;-82
2022/09/30 07:07:52;;;;;;;1999.90;999.90;;;12.40;85.70;;;;;;5095228;28;20056;-81
2022/09/30 07:10:18;;;;;;;1999.90;999.90;;;12.80;80.30;;;;;;5095623;28;20052;-81
2022/09/30 07:12:47;;;;;;;1999.90;999.90;;;13.00;83.00;;;;;;5094560;28;20047;-81
2022/09/30 07:15:13;;;;;;;1999.90;999.90;;;13.00;87.10;;;;;;5077489;28;20243;-81
2022/09/30 07:17:39;;;;;;;1999.90;999.90;;;12.60;98.50;;;;;;5095188;28;20048;-81
2022/09/30 07:20:05;;;;;;;1999.90;999.90;;;12.80;99.20;;;;;;5060618;28;20488;-80
2022/09/30 07:22:33;;;;;;;1999.90;999.90;;;13.20;99.90;;;;;;5094909;28;20048;-81
2022/09/30 07:25:02;;;;;;;1999.90;999.90;;;13.30;99.90;;;;;;5094668;28;20450;-81
2022/09/30 07:27:31;;;;;;;1999.90;999.90;;;13.40;99.90;;;;;;5094675;28;20051;-83
2022/09/30 07:29:58;;;;;;;1999.90;999.90;;;13.20;99.90;;;;;;5095062;28;20056;-82
2022/09/30 07:32:24;;;;;;;1999.90;999.90;;;13.00;99.90;;;;;;5094842;28;20046;-85
2022/09/30 07:34:50;;;;;;;1999.90;999.90;;;13.50;99.90;;;;;;5095574;28;20044;-82
2022/09/30 07:37:17;;;;;;;1999.90;999.90;;;13.20;99.90;;;;;;5077228;28;20056;-81
2022/09/30 07:39:46;;;;;;;1999.90;999.90;;;13.60;99.90;;;;;;5095173;28;20113;-81
2022/09/30 07:42:20;;;;;;;1999.90;999.90;;;14.00;99.90;;;;;;5094658;28;20044;-82
2022/09/30 07:44:46;;;;;;;1999.90;999.90;;;14.20;99.90;;;;;;5078464;28;20052;-82
2022/09/30 07:47:13;;;;;;;1999.90;999.90;;;15.10;99.90;;;;;;5094780;28;20047;-82
2022/09/30 07:49:40;;;;;;;1999.90;999.90;;;14.30;82.20;;;;;;5094251;28;20492;-82
2022/09/30 07:52:06;;;;;;;1999.90;999.90;;;14.40;22.60;;;;;;5076375;28;20048;-81
2022/09/30 07:54:33;;;;;;;1999.90;999.90;;;14.00;1.00;;;;;;5076927;28;20047;-82
2022/09/30 07:57:00;;;;;;;1999.90;999.90;;;14.50;1.00;;;;;;5076196;28;20480;-89
2022/09/30 07:59:28;;;;;;;1999.90;999.90;;;14.70;1.00;;;;;;5094578;28;20136;-82
2022/09/30 08:01:54;;;;;;;1999.90;999.90;;;14.60;99.90;;;;;;5094538;28;20046;-81
2022/09/30 08:04:20;;;;;;;1999.90;999.90;;;14.70;99.90;;;;;;5093201;28;20245;-82
2022/09/30 08:06:49;;;;;;;1999.90;999.90;;;14.80;99.90;;;;;;5076357;28;20059;-82
2022/09/30 08:09:17;;;;;;;1999.90;999.90;;;14.90;99.90;;;;;;5092893;28;20055;-82
2022/09/30 08:11:43;;;;;;;1999.90;999.90;;;15.10;99.90;;;;;;5075934;28;20044;-82
2022/09/30 08:14:18;;;;;;;1999.90;999.90;;;14.80;36.90;;;;;;5059058;28;20089;-82
2022/09/30 08:16:44;;;;;;;1999.90;999.90;;;15.30;1.00;;;;;;5094356;28;20052;-82
2022/09/30 08:19:15;;;;;;;1999.90;999.90;;;15.30;1.00;;;;;;5059305;28;20048;-82
2022/09/30 08:21:42;;;;;;;1999.90;999.90;;;15.10;99.90;;;;;;5093816;28;20071;-82
2022/09/30 08:24:08;;;;;;;1999.90;999.90;;;15.10;65.40;;;;;;5075515;28;20091;-82
2022/09/30 08:26:34;;;;;;;1999.90;999.90;;;15.40;99.90;;;;;;5075747;28;20056;-82
2022/09/30 08:29:00;;;;;;;1999.90;999.90;;;15.60;24.20;;;;;;5076206;28;20044;-82
2022/09/30 08:31:26;;;;;;;1999.90;999.90;;;15.50;1.00;;;;;;5093043;28;20048;-82
2022/09/30 08:33:53;;;;;;;1999.90;999.90;;;15.50;99.90;;;;;;5093856;28;20048;-82
2022/09/30 08:36:20;;;;;;;1999.90;999.90;;;15.70;1.00;;;;;;5093551;28;20048;-82
2022/09/30 08:38:46;;;;;;;;;;;15.90;94.60;;;;;;5059946;28;20193;-82
2022/09/30 08:41:30;;;;;;;1999.90;999.90;;;15.80;10.90;;;;;;5074603;28;20432;-82
2022/09/30 08:44:34;;;;;;;1999.90;999.90;;;15.70;99.90;;;;;;5059154;28;20087;-82
2022/09/30 08:47:18;;;;;;;1999.90;999.90;;;15.70;1.00;;;;;;5093615;28;20051;-82
2022/09/30 08:49:57;;;;;;;1999.90;999.90;;;16.10;96.00;;;;;;5093750;28;20051;-82
2022/09/30 08:52:27;;;;;;;1999.90;999.90;;;16.00;99.90;;;;;;5074795;28;20131;-82
2022/09/30 08:54:55;;;;;;;1999.90;999.90;;;16.30;99.90;;;;;;5093798;28;20055;-82
2022/09/30 08:57:23;;;;;;;1999.90;999.90;;;16.20;1.00;;;;;;5074736;28;20547;-83
2022/09/30 08:59:51;;;;;;;1999.90;999.90;;;16.20;99.00;;;;;;5075656;28;20086;-82
2022/09/30 09:02:39;;;;;;;1999.90;999.90;;;16.90;1.00;;;;;;5074567;28;20085;-83
2022/09/30 09:05:09;;;;;;;1999.90;999.90;;;17.20;99.90;;;;;;5058603;28;20055;-82
2022/09/30 09:07:46;;;;;;;1999.90;999.90;;;17.80;99.90;;;;;;5093168;28;20040;-81
2022/09/30 09:10:38;;;;;;;1999.90;999.90;;;18.10;99.90;;;;;;5074776;28;20293;-82
2022/09/30 09:13:27;;;;;;;1999.90;999.90;;;18.60;99.90;;;;;;5074044;28;20470;-81
2022/09/30 09:16:09;;;;;;;1999.90;999.90;;;19.30;99.90;;;;;;5093421;28;20127;-81
2022/09/30 09:19:09;;;;;;;1999.90;999.90;;;20.30;1.00;;;;;;5058737;28;20067;-81
2022/09/30 09:21:47;;;;;;;;;;;20.70;99.90;;;;;;5077921;28;20059;-82
2022/09/30 09:24:18;;;;;;;1999.90;999.90;;;21.10;35.80;;;;;;5058158;28;20008;-82
2022/09/30 09:26:45;;;;;;;1999.90;999.90;;;21.80;34.20;;;;;;5092850;28;20396;-82
2022/09/30 09:29:19;;;;;;;1999.90;999.90;;;22.40;1.00;;;;;;5093161;28;20044;-89
2022/09/30 09:31:47;;;;;;;1999.90;999.90;;;22.50;1.00;;;;;;5091370;28;20076;-82
2022/09/30 09:34:13;;;;;;;1999.90;999.90;;;23.50;1.00;;;;;;5091517;28;20394;-83
2022/09/30 09:37:09;;;;;;;1999.90;999.90;;;24.10;99.90;;;;;;5092005;28;20139;-85
2022/09/30 09:40:02;;;;;;;1999.90;999.90;;;24.20;99.90;;;;;;5074461;28;20048;-83
2022/09/30 09:42:58;;;;;;;1999.90;999.90;;;24.40;99.90;;;;;;5091958;28;20040;-83
2022/09/30 09:45:26;;;;;;;1999.90;999.90;;;24.70;99.90;;;;;;5092647;28;20122;-82
2022/09/30 09:47:52;;;;;;;1999.90;967.25;;;25.10;99.90;;;;;;5074465;28;20052;-82
2022/09/30 09:50:43;;;;;;;1999.90;999.90;;;24.90;99.90;;;;;;5092582;28;20504;-82
2022/09/30 09:53:44;;;;;;;1999.90;999.90;;;24.30;99.90;;;;;;5062953;28;20056;-82
2022/09/30 09:56:20;;;;;;;1999.90;981.42;;;23.00;99.90;;;;;;5068431;28;20398;-82
2022/09/30 09:59:11;;;;;;;1999.90;999.90;;;21.80;99.90;;;;;;5092611;28;20483;-83
2022/09/30 10:01:49;;;;;;;1999.90;871.85;;;21.20;99.90;;;;;;5074354;28;20104;-83
2022/09/30 10:04:24;;;;;;;1999.90;999.90;;;20.40;99.90;;;;;;5092215;28;20044;-82
2022/09/30 10:06:54;;;;;;;1999.90;999.90;;;20.00;99.90;;;;;;5092856;28;20127;-82
2022/09/30 10:09:40;;;;;;;1999.90;999.90;;;19.80;99.90;;;;;;5092589;28;20048;-82
2022/09/30 10:12:05;;;;;;;1999.90;999.90;;;19.60;99.90;;;;;;5091930;28;20052;-83
2022/09/30 10:15:13;;;;;;;1999.90;999.90;;;19.60;99.90;;;;;;5074493;28;20051;-82
2022/09/30 10:17:39;;;;;;;1999.90;999.90;;;19.60;99.90;;;;;;5081857;28;20052;-82
2022/09/30 10:20:06;;;;;;;1999.90;999.90;;;19.70;99.90;;;;;;5092758;28;20054;-81
2022/09/30 10:22:34;;;;;;;;;;;19.70;99.90;;;;;;5092590;28;20052;-81
2022/09/30 10:25:16;;;;;;;1999.90;609.28;;;19.80;99.90;;;;;;5058246;28;19924;-83
2022/09/30 10:27:53;;;;;;;1999.90;949.47;;;20.40;99.90;;;;;;5073680;28;20477;-83
2022/09/30 10:30:35;;;;;;;1999.90;984.78;;;21.20;99.90;;;;;;5074867;28;20044;-83
2022/09/30 10:33:05;;;;;;;1999.90;999.90;;;21.80;99.90;;;;;;5093257;28;20131;-82
2022/09/30 10:35:31;;;;;;;1968.28;906.40;;;22.20;99.90;;;;;;5078678;28;20056;-82
2022/09/30 10:37:59;;;;;;;874.35;549.38;;;22.60;99.90;;;;;;5062041;28;20052;-83
2022/09/30 10:40:28;;;;;;;469.75;433.30;;;23.10;99.90;;;;;;5096532;28;20048;-84
2022/09/30 10:42:55;;;;;;;461.67;421.63;;;23.30;99.90;;;;;;5095604;28;20044;-83
2022/09/30 10:45:37;;;;;;;330.60;310.48;;;24.20;99.90;;;;;;5061190;28;20136;-82
2022/09/30 10:48:06;;;;;;;320.45;299.73;;;24.10;99.90;;;;;;5078240;28;20040;-84
2022/09/30 10:50:32;;;;;;;391.65;365.58;;;24.00;99.90;;;;;;5060780;28;20400;-82
2022/09/30 10:53:04;;;;;;;399.85;369.55;;;24.10;99.90;;;;;;5095616;28;20032;-83
2022/09/30 10:55:40;;;;;;;283.67;267.52;;;24.10;99.90;;;;;;5076980;28;20497;-82
2022/09/30 10:58:28;;;;;;;268.55;253.55;;;24.30;99.90;;;;;;5077315;28;20056;-84
2022/09/30 11:01:05;;;;;;;240.48;227.27;;;25.50;99.90;;;;;;5077685;28;20401;-82
2022/09/30 11:03:40;;;;;;;245.63;231.60;;;25.40;99.90;;;;;;5077444;28;20074;-85
2022/09/30 11:06:10;;;;;;;200.68;189.60;;;24.80;99.90;;;;;;5095790;28;20048;-83
2022/09/30 11:08:50;;;;;;;200.20;189.48;;;24.30;99.90;;;;;;5095150;28;20123;-83
2022/09/30 11:11:32;;;;;;;203.57;192.32;;;24.30;99.90;;;;;;5077277;28;20389;-83
2022/09/30 11:14:20;;;;;;;219.50;207.38;;;24.60;99.90;;;;;;5077645;28;20409;-83
2022/09/30 11:17:14;;;;;;;193.00;182.37;;;25.30;99.90;;;;;;5077428;28;20135;-83
2022/09/30 11:19:50;;;;;;;191.07;180.75;;;25.30;99.90;;;;;;5094042;28;20160;-83
2022/09/30 11:22:28;;;;;;;59.08;55.50;;;26.50;99.90;;;;;;5095352;28;20491;-83
2022/09/30 11:24:56;;;;;;;106.03;99.95;;;26.40;99.90;;;;;;5095289;28;20044;-83
2022/09/30 11:27:34;;;;;;;64.50;60.75;;;27.10;99.90;;;;;;5076996;28;20123;-83
2022/09/30 11:30:14;;;;;;;164.52;155.55;;;27.10;99.90;;;;;;5095082;28;20406;-84
2022/09/30 11:32:55;;;;;;;103.10;96.97;;;27.50;99.90;;;;;;5094556;28;20523;-83
2022/09/30 11:36:04;;;;;;;104.60;98.72;;;26.70;99.90;;;;;;5095127;28;20048;-83
2022/09/30 11:38:38;;;;;;;125.05;117.40;;;25.70;99.90;;;;;;5094769;28;20094;-83
2022/09/30 11:41:14;;;;;;;99.70;94.07;;;25.10;99.90;;;;;;5094196;28;20145;-83
2022/09/30 11:44:04;;;;;;;173.55;161.13;;;26.00;99.90;;;;;;5076552;28;20048;-83
2022/09/30 11:46:46;;;;;;;138.32;130.48;;;25.00;99.90;;;;;;5094351;28;20520;-87
2022/09/30 11:49:30;;;;;;;101.97;93.93;;;25.30;99.90;;;;;;5093911;28;20500;-82
2022/09/30 11:52:14;;;;;;;55.80;52.08;;;25.40;99.90;;;;;;5076180;28;20090;-84
2022/09/30 11:55:05;;;;;;;137.85;129.18;;;24.30;99.90;;;;;;5076733;28;20135;-82
2022/09/30 11:57:48;;;;;;;62.38;58.80;;;23.30;99.90;;;;;;5075885;28;20048;-82
2022/09/30 12:00:17;;;;;;;155.48;146.38;;;22.80;99.90;;;;;;5060350;28;20078;-83
2022/09/30 12:02:49;;;;;;;98.47;93.05;;;22.10;99.90;;;;;;5075964;28;20106;-84
2022/09/30 12:05:23;;;;;;;143.23;135.05;;;21.90;99.90;;;;;;5076782;28;20040;-82
2022/09/30 12:08:00;;;;;;;290.48;274.30;;;21.80;99.90;;;;;;5075906;28;20044;-83
2022/09/30 12:10:32;;;;;;;191.10;180.35;;;21.70;99.90;;;;;;5093652;28;20044;-83
2022/09/30 12:13:11;;;;;;;211.05;199.25;;;21.60;99.90;;;;;;5093617;28;20464;-82
2022/09/30 12:15:39;;;;;;;252.55;238.00;;;21.30;99.90;;;;;;5094215;28;20046;-82
2022/09/30 12:18:14;;;;;;;379.40;356.45;;;21.20;99.90;;;;;;5093737;28;20087;-83
2022/09/30 12:20:51;;;;;;;453.73;420.15;;;21.00;99.90;;;;;;5093800;28;20052;-82
2022/09/30 12:23:26;;;;;;;544.67;505.15;;;20.90;99.90;;;;;;5075627;28;20162;-82
2022/09/30 12:25:56;;;;;;;552.95;515.45;;;20.90;99.90;;;;;;5076131;28;20048;-81
2022/09/30 12:31:50;;;;;;;641.90;590.35;;;20.70;99.90;;;;;;5076085;28;20048;-81
2022/09/30 12:34:47;;;;;;;617.22;563.38;;;20.70;99.90;;;;;;5093515;28;20508;-82
2022/09/30 12:37:12;;;;;;;1637.72;700.17;;;20.60;99.90;;;;;;5063226;28;20059;-82